createdAt,value
2018-09-14T00:02:25.292Z,101971.78
2018-09-14T00:04:53.944Z,101968.52
2018-09-14T00:07:22.616Z,101960.11
2018-09-14T00:09:52.303Z,101962.41
2018-09-14T00:12:20.997Z,101960.53
2018-09-14T00:14:49.628Z,101957.41
2018-09-14T00:17:18.354Z,101959.56
2018-09-14T00:19:46.968Z,101961.81
2018-09-14T00:22:15.628Z,101957.91
2018-09-14T00:24:44.277Z,101948.91
2018-09-14T00:27:12.935Z,101958.50
2018-09-14T00:29:41.568Z,101958.18
2018-09-14T00:32:10.197Z,101961.09
2018-09-14T00:34:38.862Z,101952.37
2018-09-14T00:37:07.571Z,101951.92
2018-09-14T00:39:36.233Z,101945.55
2018-09-14T00:42:04.956Z,101941.23
2018-09-14T00:44:33.682Z,101947.52
2018-09-14T00:47:02.372Z,101943.98
2018-09-14T00:49:31.053Z,101949.41
2018-09-14T00:51:59.672Z,101953.84
2018-09-14T00:54:28.353Z,101953.78
2018-09-14T00:56:57.007Z,101953.07
2018-09-14T00:59:25.692Z,101948.87
2018-09-14T01:01:54.343Z,101950.59
2018-09-14T01:04:22.992Z,101952.42
2018-09-14T01:06:52.403Z,101951.87
2018-09-14T01:09:27.596Z,101947.20
2018-09-14T01:11:57.684Z,101953.88
2018-09-14T01:14:27.239Z,101954.30
2018-09-14T01:16:56.506Z,101946.50
2018-09-14T01:19:25.591Z,101950.08
2018-09-14T01:21:54.269Z,101947.82
2018-09-14T01:24:22.996Z,101951.59
2018-09-14T01:26:52.861Z,101962.21
2018-09-14T01:29:22.447Z,101952.43
2018-09-14T01:31:51.150Z,101949.63
2018-09-14T01:34:19.779Z,101950.56
2018-09-14T01:36:48.432Z,101943.33
2018-09-14T01:39:17.046Z,101944.31
2018-09-14T01:41:45.771Z,101944.47
2018-09-14T01:44:14.495Z,101941.02
2018-09-14T01:46:43.180Z,101944.74
2018-09-14T01:49:11.836Z,101935.80
2018-09-14T01:51:40.488Z,101933.20
2018-09-14T01:54:09.183Z,101926.95
2018-09-14T01:56:37.896Z,101928.53
2018-09-14T01:59:06.560Z,101929.05
2018-09-14T02:01:35.229Z,101935.35
2018-09-14T02:04:03.898Z,101928.16
2018-09-14T02:06:32.673Z,101929.03
2018-09-14T02:09:01.265Z,101932.98
2018-09-14T02:11:29.946Z,101932.70
2018-09-14T02:13:58.577Z,101933.41
2018-09-14T02:16:27.190Z,101939.09
2018-09-14T02:18:55.847Z,101931.48
2018-09-14T02:21:24.602Z,101934.11
2018-09-14T02:23:53.387Z,101927.81
2018-09-14T02:26:22.566Z,101924.45
2018-09-14T02:28:51.226Z,101924.75
2018-09-14T02:31:20.039Z,101912.42
2018-09-14T02:33:48.661Z,101914.75
2018-09-14T02:36:17.292Z,101912.09
2018-09-14T02:38:45.987Z,101917.66
2018-09-14T02:41:14.677Z,101911.69
2018-09-14T02:43:43.305Z,101911.88
2018-09-14T02:46:11.972Z,101912.23
2018-09-14T02:48:40.710Z,101914.08
2018-09-14T02:51:09.340Z,101913.02
2018-09-14T02:53:38.001Z,101914.57
2018-09-14T02:56:06.701Z,101911.03
2018-09-14T02:58:35.325Z,101907.70
2018-09-14T03:01:04.071Z,101909.05
2018-09-14T03:03:34.226Z,101914.58
2018-09-14T03:06:02.892Z,101911.34
2018-09-14T03:08:31.672Z,101899.28
2018-09-14T03:11:00.342Z,101904.31
2018-09-14T03:13:29.216Z,101897.02
2018-09-14T03:15:58.818Z,101894.55
2018-09-14T03:18:27.637Z,101904.26
2018-09-14T03:20:57.302Z,101900.11
2018-09-14T03:23:26.210Z,101900.96
2018-09-14T03:25:55.058Z,101897.95
2018-09-14T03:28:23.716Z,101894.16
2018-09-14T03:30:53.106Z,101895.45
2018-09-14T03:33:21.951Z,101890.48
2018-09-14T03:35:50.812Z,101887.45
2018-09-14T03:38:19.660Z,101886.09
2018-09-14T03:40:48.601Z,101899.26
2018-09-14T03:43:17.330Z,101896.58
2018-09-14T03:45:46.146Z,101894.20
2018-09-14T03:48:14.790Z,101893.02
2018-09-14T03:50:44.486Z,101895.13
2018-09-14T03:53:13.437Z,101896.41
2018-09-14T03:55:42.121Z,101894.70
2018-09-14T03:58:11.021Z,101894.27
2018-09-14T04:00:39.868Z,101894.53
2018-09-14T04:03:09.100Z,101890.87
2018-09-14T04:05:38.484Z,101893.86
2018-09-14T04:08:07.661Z,101899.06
2018-09-14T04:10:37.066Z,101898.63
2018-09-14T04:13:05.862Z,101885.59
2018-09-14T04:15:34.535Z,101888.31
2018-09-14T04:18:03.345Z,101890.98
2018-09-14T04:20:32.116Z,101892.13
2018-09-14T04:23:01.373Z,101894.16
2018-09-14T04:25:31.027Z,101888.45
2018-09-14T04:27:59.735Z,101891.45
2018-09-14T04:30:28.738Z,101892.09
2018-09-14T04:32:57.506Z,101891.15
2018-09-14T04:35:26.170Z,101887.63
2018-09-14T04:37:56.180Z,101890.59
2018-09-14T04:40:24.922Z,101894.27
2018-09-14T04:42:53.810Z,101889.23
2018-09-14T04:45:23.440Z,101889.33
2018-09-14T04:47:52.290Z,101883.17
2018-09-14T04:50:21.113Z,101890.95
2018-09-14T04:52:50.767Z,101888.44
2018-09-14T04:55:19.511Z,101889.28
2018-09-14T04:57:48.276Z,101889.50
2018-09-14T05:00:17.140Z,101891.48
2018-09-14T05:02:45.967Z,101891.98
2018-09-14T05:05:15.455Z,101894.34
2018-09-14T05:07:44.314Z,101894.13
2018-09-14T05:10:13.168Z,101895.48
2018-09-14T05:12:41.970Z,101896.24
2018-09-14T05:15:11.426Z,101899.25
2018-09-14T05:17:40.249Z,101901.45
2018-09-14T05:20:09.112Z,101906.70
2018-09-14T05:22:38.108Z,101899.41
2018-09-14T05:25:06.995Z,101904.31
2018-09-14T05:27:35.827Z,101906.77
2018-09-14T05:30:05.486Z,101906.45
2018-09-14T05:32:34.213Z,101911.63
2018-09-14T05:35:02.996Z,101910.87
2018-09-14T05:37:31.821Z,101912.95
2018-09-14T05:40:00.585Z,101908.02
2018-09-14T05:42:30.240Z,101914.08
2018-09-14T05:44:59.137Z,101917.50
2018-09-14T05:47:28.376Z,101914.89
2018-09-14T05:49:57.212Z,101912.08
2018-09-14T05:52:26.363Z,101918.17
2018-09-14T05:54:55.509Z,101919.64
2018-09-14T05:57:24.342Z,101918.22
2018-09-14T05:59:53.703Z,101921.97
2018-09-14T06:02:22.613Z,101927.39
2018-09-14T06:04:51.292Z,101934.66
2018-09-14T06:07:21.453Z,101926.64
2018-09-14T06:09:50.337Z,101935.53
2018-09-14T06:12:19.473Z,101934.72
2018-09-14T06:14:48.756Z,101935.75
2018-09-14T06:17:17.538Z,101934.56
2018-09-14T06:19:46.307Z,101943.56
2018-09-14T06:22:15.195Z,101941.64
2018-09-14T06:24:44.577Z,101942.90
2018-09-14T06:27:13.817Z,101940.29
2018-09-14T06:29:42.529Z,101937.02
2018-09-14T06:32:11.416Z,101930.06
2018-09-14T06:34:40.280Z,101931.75
2018-09-14T06:37:09.161Z,101931.16
2018-09-14T06:39:38.064Z,101933.34
2018-09-14T06:42:07.023Z,101932.69
2018-09-14T06:44:36.261Z,101920.81
2018-09-14T06:47:05.241Z,101921.59
2018-09-14T06:49:35.296Z,101920.69
2018-09-14T06:52:04.255Z,101916.61
2018-09-14T06:54:33.112Z,101917.92
2018-09-14T06:57:02.064Z,101922.61
2018-09-14T06:59:31.333Z,101915.91
2018-09-14T07:02:00.263Z,101916.61
2018-09-14T07:04:29.208Z,101918.52
2018-09-14T07:06:57.989Z,101919.68
2018-09-14T07:09:26.736Z,101923.23
2018-09-14T07:11:56.317Z,101919.14
2018-09-14T07:14:26.001Z,101920.09
2018-09-14T07:16:54.630Z,101913.20
2018-09-14T07:19:23.524Z,101919.52
2018-09-14T07:21:52.552Z,101914.34
2018-09-14T07:24:21.654Z,101917.18
2018-09-14T07:26:50.433Z,101924.27
2018-09-14T07:29:19.227Z,101922.94
2018-09-14T07:31:48.083Z,101926.44
2018-09-14T07:34:17.166Z,101922.27
2018-09-14T07:36:46.806Z,101924.13
2018-09-14T07:39:15.681Z,101915.72
2018-09-14T07:41:44.485Z,101923.73
2018-09-14T07:44:13.365Z,101919.50
2018-09-14T07:46:42.185Z,101913.17
2018-09-14T07:49:11.000Z,101914.04
2018-09-14T07:51:39.877Z,101908.98
2018-09-14T07:54:08.607Z,101911.37
2018-09-14T07:56:37.465Z,101916.39
2018-09-14T07:59:06.492Z,101910.41
2018-09-14T08:01:35.327Z,101911.83
2018-09-14T08:04:04.293Z,101917.38
2018-09-14T08:06:33.245Z,101914.91
2018-09-14T08:09:02.841Z,101921.08
2018-09-14T08:11:31.860Z,101923.25
2018-09-14T08:14:01.418Z,101922.95
2018-09-14T08:16:30.563Z,101916.93
2018-09-14T08:18:59.477Z,101919.45
2018-09-14T08:21:28.367Z,101919.30
2018-09-14T08:23:57.061Z,101917.73
2018-09-14T08:26:26.372Z,101913.80
2018-09-14T08:28:55.598Z,101918.30
2018-09-14T08:31:24.687Z,101927.57
2018-09-14T08:33:53.427Z,101922.00
2018-09-14T08:36:22.281Z,101921.31
2018-09-14T08:38:51.193Z,101922.01
2018-09-14T08:41:20.126Z,101928.88
2018-09-14T08:43:49.576Z,101918.09
2018-09-14T08:46:18.422Z,101928.97
2018-09-14T08:48:47.847Z,101927.83
2018-09-14T08:51:16.861Z,101922.68
2018-09-14T08:53:45.861Z,101916.39
2018-09-14T08:56:14.847Z,101924.19
2018-09-14T08:58:43.818Z,101923.48
2018-09-14T09:01:12.671Z,101925.56
2018-09-14T09:03:41.491Z,101918.66
2018-09-14T09:06:10.227Z,101928.13
2018-09-14T09:08:39.152Z,101921.05
2018-09-14T09:11:08.350Z,101926.45
2018-09-14T09:13:37.375Z,101926.91
2018-09-14T09:16:06.326Z,101931.77
2018-09-14T09:18:35.442Z,101928.49
2018-09-14T09:21:04.257Z,101923.60
2018-09-14T09:23:33.287Z,101921.69
2018-09-14T09:26:02.770Z,101923.18
2018-09-14T09:28:31.781Z,101919.80
2018-09-14T09:31:00.897Z,101921.42
2018-09-14T09:33:29.826Z,101920.67
2018-09-14T09:35:59.189Z,101919.89
2018-09-14T09:38:28.214Z,101916.74
2018-09-14T09:40:57.137Z,101911.51
2018-09-14T09:43:27.422Z,101913.22
2018-09-14T09:45:56.541Z,101915.94
2018-09-14T09:48:25.465Z,101920.08
2018-09-14T09:50:55.185Z,101919.67
2018-09-14T09:53:23.944Z,101908.14
2018-09-14T09:55:52.792Z,101910.36
2018-09-14T09:58:21.442Z,101905.55
2018-09-14T10:00:55.451Z,101907.27
2018-09-14T10:03:29.422Z,101904.46
2018-09-14T10:06:04.115Z,101898.20
2018-09-14T10:08:32.784Z,101907.77
2018-09-14T10:11:01.968Z,101901.23
2018-09-14T10:13:30.863Z,101900.16
2018-09-14T10:15:59.900Z,101895.95
2018-09-14T10:18:28.785Z,101900.39
2018-09-14T10:20:57.698Z,101900.61
2018-09-14T10:23:26.635Z,101901.11
2018-09-14T10:25:55.439Z,101897.73
2018-09-14T10:28:24.369Z,101899.58
2018-09-14T10:30:53.219Z,101903.77
2018-09-14T10:33:21.944Z,101899.50
2018-09-14T10:35:51.426Z,101897.22
2018-09-14T10:38:20.269Z,101889.66
2018-09-14T10:40:49.020Z,101887.95
2018-09-14T10:43:18.180Z,101884.92
2018-09-14T10:45:47.429Z,101884.63
2018-09-14T10:48:16.770Z,101889.30
2018-09-14T10:50:45.846Z,101883.56
2018-09-14T10:53:14.744Z,101878.55
2018-09-14T10:55:43.461Z,101882.45
2018-09-14T10:58:13.025Z,101878.10
2018-09-14T11:00:42.040Z,101873.31
2018-09-14T11:03:11.364Z,101877.09
2018-09-14T11:05:41.143Z,101877.89
2018-09-14T11:08:10.761Z,101871.22
2018-09-14T11:10:39.529Z,101873.98
2018-09-14T11:13:08.337Z,101868.09
2018-09-14T11:15:37.240Z,101866.73
2018-09-14T11:18:06.065Z,101857.59
2018-09-14T11:20:35.001Z,101859.83
2018-09-14T11:23:03.815Z,101853.92
2018-09-14T11:25:32.680Z,101847.98
2018-09-14T11:28:01.642Z,101846.64
2018-09-14T11:30:30.419Z,101843.70
2018-09-14T11:32:59.527Z,101840.81
2018-09-14T11:35:28.779Z,101832.53
2018-09-14T11:37:57.730Z,101828.48
2018-09-14T11:40:27.526Z,101834.55
2018-09-14T11:42:56.950Z,101821.47
2018-09-14T11:45:26.427Z,101820.56
2018-09-14T11:47:55.148Z,101815.45
2018-09-14T11:50:23.866Z,101818.73
2018-09-14T11:52:53.356Z,101805.91
2018-09-14T11:55:22.136Z,101804.18
2018-09-14T11:57:51.080Z,101804.78
2018-09-14T12:00:20.050Z,101808.42
2018-09-14T12:02:48.834Z,101806.28
2018-09-14T12:05:17.686Z,101800.92
2018-09-14T12:07:46.618Z,101791.70
2018-09-14T12:10:15.336Z,101794.69
2018-09-14T12:12:43.999Z,101789.52
2018-09-14T12:15:12.712Z,101791.48
2018-09-14T12:17:41.482Z,101789.16
2018-09-14T12:20:10.700Z,101789.00
2018-09-14T12:22:40.026Z,101783.38
2018-09-14T12:25:08.968Z,101782.48
2018-09-14T12:27:38.325Z,101785.96
2018-09-14T12:30:07.844Z,101783.73
2018-09-14T12:32:36.880Z,101783.41
2018-09-14T12:35:05.605Z,101780.19
2018-09-14T12:37:34.350Z,101777.96
2018-09-14T12:40:02.985Z,101784.83
2018-09-14T12:42:31.711Z,101778.47
2018-09-14T12:45:00.452Z,101776.52
2018-09-14T12:47:29.091Z,101770.69
2018-09-14T12:49:57.766Z,101771.49
2018-09-14T12:52:27.024Z,101765.36
2018-09-14T12:54:55.740Z,101770.32
2018-09-14T12:57:24.464Z,101770.78
2018-09-14T12:59:53.175Z,101765.35
2018-09-14T13:02:21.865Z,101766.06
2018-09-14T13:04:50.574Z,101765.16
2018-09-14T13:07:19.234Z,101766.52
2018-09-14T13:09:47.897Z,101755.17
2018-09-14T13:12:16.605Z,101755.61
2018-09-14T13:14:45.405Z,101760.16
2018-09-14T13:17:14.079Z,101754.28
2018-09-14T13:19:42.756Z,101751.94
2018-09-14T13:22:11.700Z,101739.80
2018-09-14T13:24:40.432Z,101747.89
2018-09-14T13:27:09.450Z,101739.94
2018-09-14T13:29:39.676Z,101739.33
2018-09-14T13:32:08.513Z,101747.30
2018-09-14T13:34:37.964Z,101744.23
2018-09-14T13:37:07.933Z,101739.80
2018-09-14T13:39:36.754Z,101738.18
2018-09-14T13:42:06.359Z,101740.36
2018-09-14T13:44:35.177Z,101743.87
2018-09-14T13:47:04.144Z,101738.77
2018-09-14T13:49:32.946Z,101735.29
2018-09-14T13:52:01.924Z,101733.11
2018-09-14T13:54:30.798Z,101727.45
2018-09-14T13:56:59.634Z,101728.38
2018-09-14T13:59:28.453Z,101730.23
2018-09-14T14:01:57.856Z,101736.67
2018-09-14T14:04:27.194Z,101730.05
2018-09-14T14:06:55.852Z,101728.11
2018-09-14T14:09:24.984Z,101728.46
2018-09-14T14:11:53.772Z,101727.18
2018-09-14T14:14:23.070Z,101730.19
2018-09-14T14:16:51.881Z,101723.33
2018-09-14T14:19:20.699Z,101729.12
2018-09-14T14:21:50.485Z,101729.92
2018-09-14T14:24:20.015Z,101731.02
2018-09-14T14:26:48.721Z,101730.63
2018-09-14T14:29:17.532Z,101721.69
2018-09-14T14:31:46.387Z,101719.51
2018-09-14T14:34:15.364Z,101721.78
2018-09-14T14:36:44.330Z,101728.64
2018-09-14T14:39:13.029Z,101720.59
2018-09-14T14:41:41.985Z,101721.19
2018-09-14T14:44:11.005Z,101718.26
2018-09-14T14:46:40.370Z,101717.78
2018-09-14T14:49:09.327Z,101712.31
2018-09-14T14:51:38.130Z,101717.99
2018-09-14T14:54:06.989Z,101710.25
2018-09-14T14:56:36.457Z,101710.27
2018-09-14T14:59:05.101Z,101712.56
2018-09-14T15:01:33.779Z,101717.18
2018-09-14T15:04:02.478Z,101710.95
2018-09-14T15:06:31.133Z,101720.76
2018-09-14T15:08:59.827Z,101723.22
2018-09-14T15:11:29.018Z,101720.67
2018-09-14T15:13:57.824Z,101729.99
2018-09-14T15:16:27.546Z,101725.39
2018-09-14T15:18:56.378Z,101720.46
2018-09-14T15:21:25.202Z,101717.77
2018-09-14T15:23:54.412Z,101720.89
2018-09-14T15:26:23.341Z,101719.58
2018-09-14T15:28:52.284Z,101721.87
2018-09-14T15:31:21.229Z,101720.06
2018-09-14T15:33:50.063Z,101723.12
2018-09-14T15:36:19.015Z,101721.17
2018-09-14T15:38:47.776Z,101728.00
2018-09-14T15:41:16.513Z,101721.84
2018-09-14T15:43:45.501Z,101721.27
2018-09-14T15:46:14.288Z,101716.92
2018-09-14T15:48:43.164Z,101719.84
2018-09-14T15:51:11.838Z,101724.25
2018-09-14T15:53:40.858Z,101727.28
2018-09-14T15:56:09.593Z,101728.10
2018-09-14T15:58:38.410Z,101731.27
2018-09-14T16:01:07.378Z,101733.37
2018-09-14T16:03:36.415Z,101741.75
2018-09-14T16:06:05.231Z,101748.38
2018-09-14T16:08:34.329Z,101744.20
2018-09-14T16:11:03.091Z,101744.38
2018-09-14T16:13:32.908Z,101749.70
2018-09-14T16:16:01.726Z,101748.41
2018-09-14T16:18:30.636Z,101741.58
2018-09-14T16:20:59.449Z,101741.50
2018-09-14T16:23:28.173Z,101729.89
2018-09-14T16:25:57.693Z,101742.98
2018-09-14T16:28:26.546Z,101743.88
2018-09-14T16:30:56.435Z,101740.28
2018-09-14T16:33:25.284Z,101741.69
2018-09-14T16:35:55.404Z,101747.00
2018-09-14T16:38:24.323Z,101746.53
2018-09-14T16:40:53.149Z,101737.34
2018-09-14T16:43:21.856Z,101749.28
2018-09-14T16:45:50.780Z,101741.72
2018-09-14T16:48:19.615Z,101742.64
2018-09-14T16:50:48.519Z,101741.94
2018-09-14T16:53:17.229Z,101747.23
2018-09-14T16:55:46.187Z,101745.05
2018-09-14T16:58:15.099Z,101740.12
2018-09-14T17:00:43.877Z,101732.82
2018-09-14T17:03:12.926Z,101742.58
2018-09-14T17:05:41.939Z,101735.56
2018-09-14T17:08:11.329Z,101744.27
2018-09-14T17:10:40.163Z,101739.67
2018-09-14T17:13:09.106Z,101750.34
2018-09-14T17:15:37.995Z,101743.09
2018-09-14T17:18:06.703Z,101742.75
2018-09-14T17:20:35.540Z,101744.41
2018-09-14T17:23:05.119Z,101754.95
2018-09-14T17:25:33.882Z,101754.69
2018-09-14T17:28:02.868Z,101755.17
2018-09-14T17:30:31.843Z,101758.75
2018-09-14T17:33:01.165Z,101769.58
2018-09-14T17:35:30.223Z,101767.47
2018-09-14T17:37:58.999Z,101761.70
2018-09-14T17:40:28.508Z,101758.44
2018-09-14T17:42:58.039Z,101756.20
2018-09-14T17:45:26.849Z,101756.54
2018-09-14T17:47:56.426Z,101756.66
2018-09-14T17:50:25.429Z,101756.92
2018-09-14T17:52:54.799Z,101760.00
2018-09-14T17:55:23.728Z,101764.88
2018-09-14T17:57:52.609Z,101763.31
2018-09-14T18:00:21.366Z,101761.19
2018-09-14T18:02:50.758Z,101768.72
2018-09-14T18:05:19.684Z,101768.63
2018-09-14T18:07:49.762Z,101769.03
2018-09-14T18:10:18.593Z,101767.62
2018-09-14T18:12:47.375Z,101773.28
2018-09-14T18:15:16.778Z,101769.84
2018-09-14T18:17:45.854Z,101772.14
2018-09-14T18:20:14.629Z,101770.36
2018-09-14T18:22:43.524Z,101772.89
2018-09-14T18:25:12.268Z,101776.13
2018-09-14T18:27:41.350Z,101777.89
2018-09-14T18:30:10.156Z,101780.30
2018-09-14T18:32:39.881Z,101778.52
2018-09-14T18:35:09.706Z,101784.00
2018-09-14T18:37:42.466Z,101788.64
2018-09-14T18:40:11.263Z,101793.02
2018-09-14T18:42:40.275Z,101796.05
2018-09-14T18:45:09.136Z,101799.70
2018-09-14T18:47:37.908Z,101805.92
2018-09-14T18:50:06.873Z,101801.52
2018-09-14T18:52:35.865Z,101802.19
2018-09-14T18:55:04.787Z,101802.66
2018-09-14T18:57:33.601Z,101806.39
2018-09-14T19:00:03.099Z,101803.35
2018-09-14T19:02:33.897Z,101802.19
2018-09-14T19:05:02.659Z,101805.09
2018-09-14T19:07:31.530Z,101799.95
2018-09-14T19:10:00.375Z,101802.85
2018-09-14T19:12:29.084Z,101803.59
2018-09-14T19:14:58.139Z,101810.44
2018-09-14T19:17:32.125Z,101802.52
2018-09-14T19:20:01.080Z,101799.78
2018-09-14T19:22:30.535Z,101809.23
2018-09-14T19:25:00.124Z,101802.44
2018-09-14T19:27:28.930Z,101813.27
2018-09-14T19:29:58.170Z,101823.83
2018-09-14T19:32:27.680Z,101814.84
2018-09-14T19:34:56.388Z,101826.99
2018-09-14T19:37:25.029Z,101819.99
2018-09-14T19:39:53.715Z,101822.06
2018-09-14T19:42:22.408Z,101812.23
2018-09-14T19:44:51.078Z,101817.42
2018-09-14T19:47:19.810Z,101815.31
2018-09-14T19:49:48.539Z,101815.08
2018-09-14T19:52:17.239Z,101820.61
2018-09-14T19:54:45.968Z,101815.91
2018-09-14T19:57:14.629Z,101814.07
2018-09-14T19:59:43.592Z,101815.53
2018-09-14T20:02:12.556Z,101812.66
2018-09-14T20:04:41.238Z,101823.30
2018-09-14T20:07:10.213Z,101823.37
2018-09-14T20:09:39.149Z,101821.13
2018-09-14T20:12:08.710Z,101825.47
2018-09-14T20:14:38.389Z,101829.73
2018-09-14T20:17:07.289Z,101832.06
2018-09-14T20:19:36.103Z,101830.47
2018-09-14T20:22:06.003Z,101828.30
2018-09-14T20:24:35.000Z,101835.53
2018-09-14T20:27:05.427Z,101828.12
2018-09-14T20:29:34.248Z,101834.82
2018-09-14T20:32:03.192Z,101837.23
2018-09-14T20:34:32.638Z,101831.68
2018-09-14T20:37:01.435Z,101839.72
2018-09-14T20:39:30.469Z,101836.58
2018-09-14T20:41:59.337Z,101848.50
2018-09-14T20:44:28.474Z,101846.89
2018-09-14T20:46:57.295Z,101847.52
2018-09-14T20:49:26.208Z,101847.84
2018-09-14T20:51:55.523Z,101852.66
2018-09-14T20:54:24.558Z,101844.30
2018-09-14T20:56:53.413Z,101846.08
2018-09-14T20:59:22.354Z,101847.84
2018-09-14T21:01:51.338Z,101849.83
2018-09-14T21:04:20.311Z,101851.44
2018-09-14T21:06:49.161Z,101843.06
2018-09-14T21:09:18.120Z,101841.56
2018-09-14T21:11:46.938Z,101852.39
2018-09-14T21:14:16.005Z,101854.55
2018-09-14T21:16:44.743Z,101854.10
2018-09-14T21:19:13.709Z,101854.03
2018-09-14T21:21:42.606Z,101859.81
2018-09-14T21:24:12.177Z,101862.25
2018-09-14T21:26:42.239Z,101871.27
2018-09-14T21:29:11.621Z,101870.86
2018-09-14T21:31:41.995Z,101864.43
2018-09-14T21:34:10.662Z,101871.20
2018-09-14T21:36:39.295Z,101872.16
2018-09-14T21:39:10.244Z,101875.30
2018-09-14T21:41:39.004Z,101882.70
2018-09-14T21:44:07.969Z,101885.50
2018-09-14T21:46:36.773Z,101890.16
2018-09-14T21:49:05.497Z,101894.80
2018-09-14T21:51:34.201Z,101883.29
2018-09-14T21:54:03.795Z,101887.94
2018-09-14T21:56:32.467Z,101887.37
2018-09-14T21:59:01.238Z,101888.55
2018-09-14T22:01:30.717Z,101887.84
2018-09-14T22:04:00.410Z,101893.34
2018-09-14T22:06:29.222Z,101900.92
2018-09-14T22:08:58.553Z,101905.17
2018-09-14T22:11:27.444Z,101904.73
2018-09-14T22:13:56.391Z,101897.04
2018-09-14T22:16:25.363Z,101905.38
2018-09-14T22:18:54.434Z,101903.63
2018-09-14T22:21:23.309Z,101897.06
2018-09-14T22:23:52.082Z,101899.66
2018-09-14T22:26:22.008Z,101890.37
2018-09-14T22:28:50.923Z,101901.49
2018-09-14T22:31:19.889Z,101896.34
2018-09-14T22:33:48.963Z,101893.36
2018-09-14T22:36:18.013Z,101898.22
2018-09-14T22:38:46.898Z,101894.44
2018-09-14T22:41:15.773Z,101886.82
2018-09-14T22:43:45.350Z,101882.80
2018-09-14T22:46:14.442Z,101891.08
2018-09-14T22:48:43.395Z,101893.97
2018-09-14T22:51:12.127Z,101893.41
2018-09-14T22:53:41.508Z,101890.28
2018-09-14T22:56:10.477Z,101894.86
2018-09-14T22:58:39.318Z,101890.70
2018-09-14T23:01:13.138Z,101897.03
2018-09-14T23:03:41.934Z,101901.13
2018-09-14T23:06:10.717Z,101906.33
2018-09-14T23:08:39.523Z,101916.14
2018-09-14T23:11:08.606Z,101917.10
2018-09-14T23:13:37.985Z,101913.75
2018-09-14T23:16:06.630Z,101919.17
2018-09-14T23:18:35.337Z,101918.13
2018-09-14T23:21:04.086Z,101913.82
2018-09-14T23:23:32.869Z,101913.66
2018-09-14T23:26:07.213Z,101912.04
2018-09-14T23:28:36.012Z,101910.42
2018-09-14T23:31:04.821Z,101916.59
2018-09-14T23:33:34.117Z,101912.70
2018-09-14T23:36:02.973Z,101918.18
2018-09-14T23:38:31.841Z,101912.17
2018-09-14T23:41:00.806Z,101916.86
2018-09-14T23:43:29.674Z,101918.13
2018-09-14T23:45:59.338Z,101922.17
2018-09-14T23:48:28.123Z,101926.75
2018-09-14T23:50:56.924Z,101930.84
2018-09-14T23:53:26.163Z,101927.54
2018-09-14T23:55:55.121Z,101938.52
2018-09-14T23:58:24.423Z,101939.38
